createdAt,value
2019-03-23T00:01:51.625Z,22.63
2019-03-23T00:05:59.815Z,27.07
2019-03-23T00:10:09.176Z,26.97
2019-03-23T00:14:17.445Z,25.63
2019-03-23T00:18:26.105Z,24.33
2019-03-23T00:22:35.038Z,25.60
2019-03-23T00:26:43.412Z,29.23
2019-03-23T00:30:52.113Z,26.27
2019-03-23T00:35:00.962Z,27.47
2019-03-23T00:39:09.156Z,24.20
2019-03-23T00:43:18.126Z,25.73
2019-03-23T00:47:26.724Z,27.43
2019-03-23T00:51:34.958Z,25.53
2019-03-23T00:55:45.251Z,26.10
2019-03-23T00:59:53.640Z,24.33
2019-03-23T01:04:01.970Z,25.60
2019-03-23T01:08:10.844Z,22.83
2019-03-23T01:12:19.124Z,30.70
2019-03-23T01:16:28.159Z,24.03
2019-03-23T01:20:36.787Z,27.97
2019-03-23T01:24:44.993Z,25.90
2019-03-23T01:28:53.839Z,27.47
2019-03-23T01:33:02.774Z,26.63
2019-03-23T01:37:11.074Z,27.50
2019-03-23T01:41:20.035Z,27.67
2019-03-23T01:45:28.639Z,29.03
2019-03-23T01:49:36.985Z,28.83
2019-03-23T01:53:45.660Z,28.77
2019-03-23T01:57:54.626Z,30.30
2019-03-23T02:02:02.812Z,30.50
2019-03-23T02:06:11.281Z,28.53
2019-03-23T02:10:19.660Z,31.20
2019-03-23T02:14:27.918Z,29.30
2019-03-23T02:18:36.715Z,29.87
2019-03-23T02:22:44.900Z,35.70
2019-03-23T02:26:53.819Z,35.13
2019-03-23T02:31:03.060Z,31.73
2019-03-23T02:35:11.529Z,37.50
2019-03-23T02:39:20.749Z,32.10
2019-03-23T02:43:29.619Z,30.57
2019-03-23T02:47:37.804Z,28.63
2019-03-23T02:51:46.769Z,27.60
2019-03-23T02:55:55.656Z,29.33
2019-03-23T03:00:07.462Z,27.77
2019-03-23T03:04:15.839Z,25.60
2019-03-23T03:08:24.520Z,25.27
2019-03-23T03:12:33.047Z,29.23
2019-03-23T03:16:41.973Z,29.93
2019-03-23T03:20:50.612Z,32.07
2019-03-23T03:24:58.923Z,28.20
2019-03-23T03:29:07.462Z,27.63
2019-03-23T03:33:15.730Z,26.20
2019-03-23T03:37:24.523Z,27.23
2019-03-23T03:41:32.943Z,29.10
2019-03-23T03:45:41.379Z,27.27
2019-03-23T03:49:49.802Z,28.47
2019-03-23T03:53:58.730Z,27.47
2019-03-23T03:58:07.139Z,27.50
2019-03-23T04:02:15.667Z,29.47
2019-03-23T04:06:24.411Z,35.73
2019-03-23T04:10:33.036Z,26.97
2019-03-23T04:14:41.574Z,32.90
2019-03-23T04:18:49.896Z,31.60
2019-03-23T04:22:58.014Z,29.00
2019-03-23T04:27:06.648Z,26.73
2019-03-23T04:31:14.972Z,30.30
2019-03-23T04:35:23.275Z,35.67
2019-03-23T04:39:31.731Z,31.03
2019-03-23T04:43:40.030Z,28.83
2019-03-23T04:47:48.763Z,29.07
2019-03-23T04:51:57.503Z,31.73
2019-03-23T04:56:05.825Z,34.70
2019-03-23T05:00:15.469Z,30.50
2019-03-23T05:04:24.109Z,35.67
2019-03-23T05:08:33.574Z,33.73
2019-03-23T05:12:42.326Z,28.13
2019-03-23T05:16:51.181Z,36.40
2019-03-23T05:20:59.641Z,69.97
2019-03-23T05:25:10.231Z,40.07
2019-03-23T05:29:18.505Z,31.13
2019-03-23T05:33:26.943Z,36.50
2019-03-23T05:37:35.799Z,30.07
2019-03-23T05:41:44.199Z,27.80
2019-03-23T05:45:52.970Z,27.53
2019-03-23T05:50:01.467Z,25.13
2019-03-23T05:54:09.795Z,23.60
2019-03-23T05:58:18.549Z,25.33
2019-03-23T06:02:27.430Z,28.60
2019-03-23T06:06:35.981Z,28.00
2019-03-23T06:10:44.508Z,27.13
2019-03-23T06:14:52.828Z,27.33
2019-03-23T06:19:02.921Z,22.40
2019-03-23T06:23:12.447Z,22.93
2019-03-23T06:27:20.683Z,23.60
2019-03-23T06:31:29.211Z,22.33
2019-03-23T06:35:37.944Z,21.57
2019-03-23T06:39:46.270Z,17.93
2019-03-23T06:43:54.765Z,24.37
2019-03-23T06:48:03.208Z,18.13
2019-03-23T06:52:11.642Z,19.17
2019-03-23T06:56:20.265Z,21.63
2019-03-23T07:00:28.602Z,17.90
2019-03-23T07:04:37.093Z,16.30
2019-03-23T07:08:45.346Z,13.53
2019-03-23T07:12:53.755Z,9.33
2019-03-23T07:17:02.598Z,15.73
2019-03-23T07:21:10.832Z,17.17
2019-03-23T07:25:19.339Z,15.83
2019-03-23T07:29:27.671Z,16.37
2019-03-23T07:33:36.518Z,11.47
2019-03-23T07:37:45.150Z,7.93
2019-03-23T07:41:53.461Z,13.77
2019-03-23T07:46:02.191Z,12.37
2019-03-23T07:50:10.716Z,17.30
2019-03-23T07:54:19.124Z,10.20
2019-03-23T07:58:27.550Z,6.10
2019-03-23T08:02:35.872Z,9.20
2019-03-23T08:06:44.641Z,12.20
2019-03-23T08:10:52.818Z,9.03
2019-03-23T08:15:01.554Z,7.93
2019-03-23T08:19:10.895Z,16.07
2019-03-23T08:23:19.733Z,13.63
2019-03-23T08:27:28.084Z,14.40
2019-03-23T08:31:36.370Z,10.40
2019-03-23T08:35:45.187Z,9.00
2019-03-23T08:39:53.756Z,11.57
2019-03-23T08:44:02.084Z,8.70
2019-03-23T08:48:10.905Z,12.73
2019-03-23T08:52:19.228Z,8.57
2019-03-23T08:56:27.341Z,14.93
2019-03-23T09:00:35.866Z,11.07
2019-03-23T09:04:44.200Z,17.20
2019-03-23T09:08:53.037Z,12.67
2019-03-23T09:13:01.737Z,8.90
2019-03-23T09:17:09.979Z,10.63
2019-03-23T09:21:18.724Z,12.90
2019-03-23T09:25:27.171Z,15.53
2019-03-23T09:29:35.428Z,10.40
2019-03-23T09:33:44.068Z,10.00
2019-03-23T09:37:52.372Z,17.00
2019-03-23T09:42:00.911Z,20.07
2019-03-23T09:46:09.747Z,15.33
2019-03-23T09:50:18.254Z,12.17
2019-03-23T09:54:27.011Z,15.93
2019-03-23T09:58:35.540Z,20.83
2019-03-23T10:02:43.754Z,8.60
2019-03-23T10:06:52.578Z,20.83
2019-03-23T10:11:01.029Z,13.10
2019-03-23T10:15:09.439Z,10.37
2019-03-23T10:19:18.257Z,10.13
2019-03-23T10:23:26.611Z,10.20
2019-03-23T10:27:34.944Z,8.87
2019-03-23T10:31:43.343Z,13.57
2019-03-23T10:35:52.357Z,16.83
2019-03-23T10:40:00.925Z,19.87
2019-03-23T10:44:11.371Z,14.97
2019-03-23T10:48:20.741Z,13.13
2019-03-23T10:52:29.758Z,12.10
2019-03-23T10:56:38.620Z,15.07
2019-03-23T11:00:46.830Z,11.63
2019-03-23T11:04:56.674Z,15.00
2019-03-23T11:09:06.499Z,13.90
2019-03-23T11:13:14.642Z,12.80
2019-03-23T11:17:23.401Z,12.10
2019-03-23T11:21:32.012Z,13.70
2019-03-23T11:25:40.331Z,9.00
2019-03-23T11:29:48.766Z,9.83
2019-03-23T11:33:57.081Z,10.23
2019-03-23T11:38:05.631Z,9.10
2019-03-23T11:42:14.241Z,9.60
2019-03-23T11:46:22.862Z,12.83
2019-03-23T11:50:31.689Z,14.33
2019-03-23T11:54:40.145Z,21.03
2019-03-23T11:58:50.601Z,10.17
2019-03-23T12:02:59.248Z,20.47
2019-03-23T12:07:07.661Z,21.40
2019-03-23T12:11:17.410Z,21.97
2019-03-23T12:15:25.839Z,16.53
2019-03-23T12:19:34.364Z,15.57
2019-03-23T12:23:42.795Z,15.10
2019-03-23T12:27:51.612Z,15.30
2019-03-23T12:31:59.855Z,16.73
2019-03-23T12:36:08.553Z,12.67
2019-03-23T12:40:18.332Z,11.93
2019-03-23T12:44:26.764Z,13.93
2019-03-23T12:48:35.681Z,11.43
2019-03-23T12:52:44.006Z,7.53
2019-03-23T12:56:53.770Z,12.33
2019-03-23T13:01:02.019Z,12.50
2019-03-23T13:05:10.456Z,41.87
2019-03-23T13:09:18.744Z,10.73
2019-03-23T13:13:26.985Z,8.37
2019-03-23T13:17:36.509Z,13.30
2019-03-23T13:21:44.518Z,7.97
2019-03-23T13:25:52.953Z,7.23
2019-03-23T13:30:01.468Z,10.50
2019-03-23T13:34:12.354Z,10.03
2019-03-23T13:38:21.180Z,11.87
2019-03-23T13:42:29.421Z,10.83
2019-03-23T13:46:37.728Z,9.33
2019-03-23T13:50:46.357Z,11.60
2019-03-23T13:54:54.661Z,8.20
2019-03-23T13:59:02.983Z,5.77
2019-03-23T14:03:11.520Z,19.03
2019-03-23T14:07:19.833Z,16.13
2019-03-23T14:11:28.192Z,16.17
2019-03-23T14:15:37.022Z,6.97
2019-03-23T14:19:45.420Z,10.40
2019-03-23T14:23:55.231Z,22.87
2019-03-23T14:28:03.718Z,10.73
2019-03-23T14:32:11.835Z,12.27
2019-03-23T14:36:20.161Z,16.17
2019-03-23T14:40:28.355Z,11.30
2019-03-23T14:44:36.822Z,8.93
2019-03-23T14:48:45.223Z,13.33
2019-03-23T14:52:53.685Z,53.90
2019-03-23T14:57:02.068Z,11.27
2019-03-23T15:01:10.805Z,11.47
2019-03-23T15:05:19.122Z,9.83
2019-03-23T15:09:27.735Z,17.53
2019-03-23T15:13:36.078Z,16.50
2019-03-23T15:17:48.814Z,15.93
2019-03-23T15:21:55.657Z,13.93
2019-03-23T15:26:04.211Z,14.17
2019-03-23T15:30:13.849Z,11.80
2019-03-23T15:34:22.397Z,12.43
2019-03-23T15:38:30.665Z,9.67
2019-03-23T15:42:39.426Z,11.17
2019-03-23T15:46:48.265Z,18.20
2019-03-23T15:50:56.607Z,15.47
2019-03-23T15:55:05.869Z,16.40
2019-03-23T15:59:14.355Z,15.10
2019-03-23T16:03:22.831Z,17.80
2019-03-23T16:07:31.422Z,19.87
2019-03-23T16:11:40.475Z,22.70
2019-03-23T16:15:48.688Z,14.10
2019-03-23T16:19:57.038Z,17.97
2019-03-23T16:24:05.227Z,16.17
2019-03-23T16:28:13.849Z,12.57
2019-03-23T16:32:22.607Z,20.60
2019-03-23T16:36:30.827Z,25.10
2019-03-23T16:40:39.346Z,7.13
2019-03-23T16:44:49.087Z,12.77
2019-03-23T16:48:58.008Z,21.67
2019-03-23T16:53:06.568Z,14.13
2019-03-23T16:57:14.973Z,15.40
2019-03-23T17:01:23.300Z,16.47
2019-03-23T17:05:32.032Z,16.73
2019-03-23T17:09:40.560Z,13.03
2019-03-23T17:13:49.296Z,9.50
2019-03-23T17:17:58.118Z,10.03
2019-03-23T17:22:06.637Z,8.07
2019-03-23T17:26:15.576Z,16.27
2019-03-23T17:30:23.933Z,11.00
2019-03-23T17:34:32.531Z,27.60
2019-03-23T17:38:41.267Z,21.57
2019-03-23T17:42:49.984Z,22.37
2019-03-23T17:46:58.857Z,18.73
2019-03-23T17:51:07.764Z,16.00
2019-03-23T17:55:16.184Z,19.63
2019-03-23T17:59:24.937Z,19.63
2019-03-23T18:03:33.595Z,25.57
2019-03-23T18:07:42.078Z,28.57
2019-03-23T18:11:50.511Z,30.53
2019-03-23T18:15:59.334Z,17.33
2019-03-23T18:20:08.789Z,17.67
2019-03-23T18:24:17.224Z,12.67
2019-03-23T18:28:26.054Z,23.70
2019-03-23T18:32:34.579Z,25.40
2019-03-23T18:36:43.099Z,17.40
2019-03-23T18:40:51.545Z,18.10
2019-03-23T18:45:00.071Z,14.97
2019-03-23T18:49:08.493Z,17.17
2019-03-23T18:53:16.795Z,12.60
2019-03-23T18:57:25.119Z,14.53
2019-03-23T19:01:33.443Z,19.30
2019-03-23T19:05:41.770Z,17.27
2019-03-23T19:09:51.309Z,14.40
2019-03-23T19:14:00.052Z,18.90
2019-03-23T19:18:09.505Z,12.73
2019-03-23T19:22:18.262Z,10.13
2019-03-23T19:26:26.460Z,17.10
2019-03-23T19:30:35.391Z,20.60
2019-03-23T19:34:44.203Z,11.63
2019-03-23T19:38:53.560Z,17.90
2019-03-23T19:43:02.401Z,14.73
2019-03-23T19:47:11.232Z,20.33
2019-03-23T19:51:19.535Z,11.17
2019-03-23T19:55:28.495Z,12.67
2019-03-23T19:59:37.239Z,15.87
2019-03-23T20:03:47.079Z,17.03
2019-03-23T20:07:55.311Z,31.03
2019-03-23T20:12:03.554Z,26.30
2019-03-23T20:16:12.052Z,15.97
2019-03-23T20:20:21.257Z,15.57
2019-03-23T20:24:29.617Z,14.53
2019-03-23T20:28:38.008Z,11.97
2019-03-23T20:32:46.369Z,13.00
2019-03-23T20:36:54.804Z,7.53
2019-03-23T20:41:03.309Z,17.40
2019-03-23T20:45:12.265Z,15.80
2019-03-23T20:49:21.063Z,9.77
2019-03-23T20:53:29.396Z,17.30
2019-03-23T20:57:38.133Z,20.93
2019-03-23T21:01:46.408Z,14.13
2019-03-23T21:05:55.089Z,11.17
2019-03-23T21:10:03.599Z,14.23
2019-03-23T21:14:19.812Z,14.07
2019-03-23T21:18:22.310Z,10.77
2019-03-23T21:22:30.911Z,15.10
2019-03-23T21:26:39.147Z,16.13
2019-03-23T21:30:47.986Z,9.67
2019-03-23T21:34:56.307Z,8.13
2019-03-23T21:39:06.124Z,9.20
2019-03-23T21:43:14.817Z,10.53
2019-03-23T21:47:24.647Z,7.67
2019-03-23T21:51:32.876Z,14.27
2019-03-23T21:55:41.687Z,16.07
2019-03-23T21:59:50.856Z,9.40
2019-03-23T22:03:59.208Z,5.70
2019-03-23T22:08:08.213Z,8.47
2019-03-23T22:12:16.540Z,5.17
2019-03-23T22:16:25.067Z,8.20
2019-03-23T22:20:33.577Z,6.90
2019-03-23T22:24:41.713Z,10.10
2019-03-23T22:28:50.018Z,10.43
2019-03-23T22:32:58.446Z,13.60
2019-03-23T22:37:06.774Z,11.90
2019-03-23T22:41:15.183Z,11.57
2019-03-23T22:45:23.407Z,11.17
2019-03-23T22:49:32.339Z,11.07
2019-03-23T22:53:40.791Z,10.67
2019-03-23T22:57:49.097Z,10.23
2019-03-23T23:01:58.618Z,7.50
2019-03-23T23:06:07.469Z,7.70
2019-03-23T23:10:16.310Z,11.90
2019-03-23T23:14:25.148Z,8.83
2019-03-23T23:18:33.572Z,13.73
2019-03-23T23:22:41.909Z,12.47
2019-03-23T23:26:50.707Z,9.37
2019-03-23T23:30:59.447Z,16.13
2019-03-23T23:35:08.987Z,5.20
2019-03-23T23:39:17.737Z,6.37
2019-03-23T23:43:26.059Z,8.67
2019-03-23T23:47:34.587Z,7.27
2019-03-23T23:51:50.007Z,6.53
2019-03-23T23:55:53.297Z,5.80
